createdAt,value
2023-01-19T02:53:56.887Z,97.06
2023-01-19T02:54:27.642Z,97.13
2023-01-19T02:54:58.142Z,97.05
2023-01-19T02:55:29.071Z,97.41
2023-01-19T02:56:00.089Z,97.25
2023-01-19T02:56:30.753Z,97.13
2023-01-19T02:57:01.498Z,97.19
2023-01-19T02:57:32.008Z,97.05
2023-01-19T02:58:02.960Z,97.05
2023-01-19T02:58:33.948Z,96.89
2023-01-19T02:59:04.491Z,97.05
2023-01-19T02:59:35.140Z,97.19
2023-01-19T03:00:05.672Z,97.00
2023-01-19T03:00:36.140Z,97.09
2023-01-19T03:01:07.166Z,97.11
2023-01-19T03:01:37.800Z,97.03
2023-01-19T03:02:08.651Z,96.88
2023-01-19T03:02:39.509Z,96.85
2023-01-19T03:03:10.025Z,96.79
2023-01-19T03:03:41.032Z,96.89
2023-01-19T03:04:11.588Z,97.01
2023-01-19T03:04:42.036Z,97.07
2023-01-19T03:05:13.038Z,97.05
2023-01-19T03:05:43.767Z,96.94
2023-01-19T03:06:14.296Z,97.17
2023-01-19T03:06:44.815Z,96.94
2023-01-19T03:07:15.247Z,97.13
2023-01-19T03:07:46.204Z,96.94
2023-01-19T03:08:17.223Z,97.09
2023-01-19T03:08:47.932Z,97.03
2023-01-19T03:09:18.497Z,97.09
2023-01-19T03:09:48.969Z,97.17
2023-01-19T03:10:19.987Z,97.17
2023-01-19T03:10:50.549Z,97.09
2023-01-19T03:11:21.058Z,97.03
2023-01-19T03:11:51.823Z,96.98
2023-01-19T03:12:22.538Z,97.28
2023-01-19T03:12:53.303Z,97.34
2023-01-19T03:13:23.898Z,97.55
2023-01-19T03:13:54.378Z,97.61
2023-01-19T03:14:25.395Z,97.76
2023-01-19T03:14:56.019Z,97.81
2023-01-19T03:15:26.533Z,98.07
2023-01-19T03:15:57.050Z,97.87
2023-01-19T03:16:27.579Z,98.08
2023-01-19T03:16:58.249Z,97.97
2023-01-19T03:17:29.022Z,97.82
2023-01-19T03:17:59.676Z,97.81
2023-01-19T03:18:30.200Z,97.63
2023-01-19T03:19:01.153Z,97.57
2023-01-19T03:19:32.203Z,97.71
2023-01-19T03:20:02.644Z,97.45
2023-01-19T03:20:33.581Z,97.34
2023-01-19T03:21:04.754Z,97.39
2023-01-19T03:21:35.272Z,97.28
2023-01-19T03:22:06.228Z,97.24
2023-01-19T03:22:37.173Z,97.17
2023-01-19T03:23:08.130Z,97.13
2023-01-19T03:23:39.084Z,97.09
2023-01-19T03:24:10.253Z,97.17
2023-01-19T03:24:40.863Z,97.22
2023-01-19T03:25:11.311Z,97.19
2023-01-19T03:25:42.285Z,97.37
2023-01-19T03:26:13.328Z,97.31
2023-01-19T03:26:43.789Z,97.13
2023-01-19T03:27:14.992Z,97.09
2023-01-19T03:27:45.706Z,97.22
2023-01-19T03:28:16.227Z,97.09
2023-01-19T03:28:46.753Z,97.13
2023-01-19T03:29:17.498Z,97.11
2023-01-19T03:29:48.167Z,96.94
2023-01-19T03:30:18.850Z,96.97
2023-01-19T03:30:49.433Z,97.07
2023-01-19T03:31:19.968Z,97.03
2023-01-19T03:31:50.514Z,97.07
2023-01-19T03:32:21.467Z,96.92
2023-01-19T03:32:52.418Z,96.83
2023-01-19T03:33:23.566Z,97.17
2023-01-19T03:33:54.103Z,97.13
2023-01-19T03:34:24.558Z,97.13
2023-01-19T03:34:55.557Z,97.13
2023-01-19T03:35:26.745Z,97.13
2023-01-19T03:35:57.461Z,97.17
2023-01-19T03:36:28.134Z,97.17
2023-01-19T03:36:58.638Z,97.07
2023-01-19T03:37:29.508Z,97.24
2023-01-19T03:38:00.431Z,97.33
2023-01-19T03:38:31.496Z,97.27
2023-01-19T03:39:01.940Z,97.17
2023-01-19T03:39:33.091Z,97.13
2023-01-19T03:40:03.648Z,97.03
2023-01-19T03:40:34.193Z,97.24
2023-01-19T03:41:04.660Z,97.27
2023-01-19T03:41:35.629Z,97.31
2023-01-19T03:42:06.578Z,97.17
2023-01-19T03:42:37.854Z,97.33
2023-01-19T03:43:08.392Z,96.97
2023-01-19T03:43:38.842Z,97.33
2023-01-19T03:44:09.789Z,97.47
2023-01-19T03:44:40.738Z,97.43
2023-01-19T03:45:11.737Z,97.33
2023-01-19T03:45:42.958Z,97.53
2023-01-19T03:46:13.554Z,97.33
2023-01-19T03:46:44.006Z,97.45
2023-01-19T03:47:15.016Z,97.69
2023-01-19T03:47:45.484Z,97.75
2023-01-19T03:48:16.520Z,97.85
2023-01-19T03:48:47.217Z,97.96
2023-01-19T03:49:17.725Z,97.81
2023-01-19T03:49:48.674Z,97.96
2023-01-19T03:50:19.709Z,98.19
2023-01-19T03:50:50.219Z,98.07
2023-01-19T03:51:21.186Z,98.23
2023-01-19T03:51:51.873Z,98.27
2023-01-19T03:52:22.392Z,98.33
2023-01-19T03:52:52.845Z,98.53
2023-01-19T03:53:23.795Z,98.44
2023-01-19T03:53:54.746Z,98.53
2023-01-19T03:54:25.772Z,98.57
2023-01-19T03:54:56.481Z,98.69
2023-01-19T03:55:27.052Z,98.68
2023-01-19T03:55:57.536Z,98.79
2023-01-19T03:56:28.059Z,98.69
2023-01-19T03:56:59.063Z,98.83
2023-01-19T03:57:29.756Z,98.49
2023-01-19T03:58:00.499Z,98.44
2023-01-19T03:58:31.050Z,98.53
2023-01-19T03:59:01.519Z,98.38
2023-01-19T03:59:32.522Z,98.47
2023-01-19T04:00:03.026Z,98.87
2023-01-19T04:00:33.568Z,98.32
2023-01-19T04:01:04.365Z,98.55
2023-01-19T04:01:35.119Z,98.57
2023-01-19T04:02:05.737Z,98.43
2023-01-19T04:02:36.297Z,98.63
2023-01-19T04:03:06.998Z,98.38
2023-01-19T04:03:37.556Z,98.49
2023-01-19T04:04:08.744Z,98.49
2023-01-19T04:04:39.272Z,98.38
2023-01-19T04:05:09.799Z,98.63
2023-01-19T04:05:40.337Z,98.68
2023-01-19T04:06:10.788Z,98.49
2023-01-19T04:06:41.808Z,98.47
2023-01-19T04:07:12.441Z,98.47
2023-01-19T04:07:42.961Z,98.53
2023-01-19T04:08:13.476Z,98.57
2023-01-19T04:08:43.996Z,98.43
2023-01-19T04:09:14.484Z,98.38
2023-01-19T04:09:45.441Z,98.27
2023-01-19T04:10:16.654Z,98.27
2023-01-19T04:10:47.223Z,98.17
2023-01-19T04:11:17.680Z,98.21
2023-01-19T04:11:48.646Z,98.32
2023-01-19T04:12:19.627Z,98.27
2023-01-19T04:12:50.581Z,98.21
2023-01-19T04:13:21.795Z,98.25
2023-01-19T04:13:52.328Z,97.99
2023-01-19T04:14:22.820Z,98.09
2023-01-19T04:14:53.789Z,97.99
2023-01-19T04:15:24.785Z,97.96
2023-01-19T04:15:55.793Z,98.05
2023-01-19T04:16:26.520Z,97.91
2023-01-19T04:16:57.047Z,98.19
2023-01-19T04:17:27.784Z,98.15
2023-01-19T04:17:58.315Z,98.19
2023-01-19T04:18:28.801Z,97.91
2023-01-19T04:18:59.761Z,98.30
2023-01-19T04:19:30.907Z,98.36
2023-01-19T04:20:01.460Z,98.47
2023-01-19T04:20:31.994Z,98.51
2023-01-19T04:21:02.479Z,98.53
2023-01-19T04:21:33.444Z,98.57
2023-01-19T04:22:04.493Z,98.57
2023-01-19T04:22:35.421Z,98.61
2023-01-19T04:23:06.137Z,98.51
2023-01-19T04:23:36.694Z,98.57
2023-01-19T04:24:07.171Z,98.68
2023-01-19T04:24:38.214Z,98.93
2023-01-19T04:25:08.694Z,98.79
2023-01-19T04:25:39.801Z,98.93
2023-01-19T04:26:10.310Z,99.04
2023-01-19T04:26:40.967Z,99.10
2023-01-19T04:27:11.495Z,99.25
2023-01-19T04:27:42.444Z,99.21
2023-01-19T04:28:13.440Z,99.16
2023-01-19T04:28:44.159Z,99.10
2023-01-19T04:29:14.660Z,99.15
2023-01-19T04:29:45.614Z,98.93
2023-01-19T04:30:16.582Z,98.89
2023-01-19T04:30:47.537Z,98.85
2023-01-19T04:31:18.529Z,98.83
2023-01-19T04:31:49.661Z,98.49
2023-01-19T04:32:20.186Z,98.41
2023-01-19T04:32:50.660Z,98.41
2023-01-19T04:33:21.668Z,98.63
2023-01-19T04:33:52.237Z,98.61
2023-01-19T04:34:22.695Z,98.68
2023-01-19T04:34:53.852Z,98.53
2023-01-19T04:35:24.347Z,98.43
2023-01-19T04:35:55.296Z,98.47
2023-01-19T04:36:26.278Z,98.47
2023-01-19T04:36:56.818Z,98.61
2023-01-19T04:37:27.263Z,98.66
2023-01-19T04:37:58.526Z,98.61
2023-01-19T04:38:29.077Z,98.75
2023-01-19T04:38:59.576Z,98.87
2023-01-19T04:39:30.099Z,98.93
2023-01-19T04:40:00.572Z,98.95
2023-01-19T04:40:31.519Z,99.04
2023-01-19T04:41:02.628Z,99.04
2023-01-19T04:41:33.192Z,99.16
2023-01-19T04:42:03.615Z,99.04
2023-01-19T04:42:34.743Z,98.99
2023-01-19T04:43:05.250Z,98.91
2023-01-19T04:43:36.233Z,98.89
2023-01-19T04:44:07.389Z,99.08
2023-01-19T04:44:37.923Z,98.99
2023-01-19T04:45:08.369Z,98.99
2023-01-19T04:45:39.402Z,99.19
2023-01-19T04:46:09.956Z,99.05
2023-01-19T04:46:40.535Z,99.10
2023-01-19T04:47:11.186Z,98.89
2023-01-19T04:47:41.732Z,98.83
2023-01-19T04:48:12.245Z,98.74
2023-01-19T04:48:43.178Z,98.74
2023-01-19T04:49:14.102Z,98.68
2023-01-19T04:49:45.380Z,98.72
2023-01-19T04:50:16.213Z,98.57
2023-01-19T04:50:46.780Z,98.66
2023-01-19T04:51:17.468Z,98.43
2023-01-19T04:51:48.464Z,98.53
2023-01-19T04:52:18.910Z,98.57
2023-01-19T04:52:49.852Z,98.60
2023-01-19T04:53:21.066Z,98.57
2023-01-19T04:53:51.567Z,98.55
2023-01-19T04:54:22.150Z,98.38
2023-01-19T04:54:52.612Z,98.29
2023-01-19T04:55:23.575Z,98.55
2023-01-19T04:55:54.580Z,98.51
2023-01-19T04:56:25.731Z,98.61
2023-01-19T04:56:56.294Z,98.57
2023-01-19T04:57:26.774Z,98.57
2023-01-19T04:57:57.742Z,98.61
2023-01-19T04:58:28.781Z,98.83
2023-01-19T04:58:59.219Z,98.71
2023-01-19T04:59:30.362Z,98.79
2023-01-19T05:00:01.143Z,98.68
2023-01-19T05:00:31.657Z,99.13
2023-01-19T05:01:02.611Z,99.04
2023-01-19T05:01:33.848Z,99.19
2023-01-19T05:02:04.555Z,99.05
2023-01-19T05:02:35.294Z,98.89
2023-01-19T05:03:06.314Z,98.99
2023-01-19T05:03:36.433Z,99.10
2023-01-19T05:04:07.374Z,98.85
2023-01-19T05:04:38.309Z,99.10
2023-01-19T05:05:09.355Z,99.25
2023-01-19T05:05:40.030Z,99.15
2023-01-19T05:06:10.552Z,98.99
2023-01-19T05:06:41.514Z,99.15
2023-01-19T05:07:12.549Z,99.35
2023-01-19T05:07:43.092Z,99.31
2023-01-19T05:08:13.955Z,99.40
2023-01-19T05:08:45.510Z,99.30
2023-01-19T05:09:15.637Z,99.15
2023-01-19T05:09:46.096Z,99.21
2023-01-19T05:10:17.039Z,99.40
2023-01-19T05:10:48.077Z,99.27
2023-01-19T05:11:18.523Z,99.10
2023-01-19T05:11:49.678Z,99.19
2023-01-19T05:12:20.226Z,99.24
2023-01-19T05:12:50.697Z,98.80
2023-01-19T05:13:21.731Z,98.85
2023-01-19T05:13:52.257Z,99.04
2023-01-19T05:14:22.730Z,99.04
2023-01-19T05:14:54.196Z,98.95
2023-01-19T05:15:24.766Z,98.98
2023-01-19T05:15:55.309Z,98.93
2023-01-19T05:16:25.919Z,98.83
2023-01-19T05:16:56.599Z,98.79
2023-01-19T05:17:27.618Z,98.68
2023-01-19T05:17:58.317Z,98.77
2023-01-19T05:18:28.821Z,98.63
2023-01-19T05:18:59.310Z,98.72
2023-01-19T05:19:30.269Z,98.61
2023-01-19T05:20:01.210Z,98.57
2023-01-19T05:20:32.163Z,98.66
2023-01-19T05:21:03.308Z,98.49
2023-01-19T05:21:33.824Z,98.53
2023-01-19T05:22:04.788Z,98.47
2023-01-19T05:22:35.803Z,98.41
2023-01-19T05:23:06.332Z,98.24
2023-01-19T05:23:36.811Z,98.41
2023-01-19T05:24:07.538Z,98.45
2023-01-19T05:24:38.094Z,98.49
2023-01-19T05:25:08.569Z,98.77
2023-01-19T05:25:39.533Z,98.63
2023-01-19T05:26:10.691Z,98.68
2023-01-19T05:26:41.205Z,98.68
2023-01-19T05:27:11.867Z,98.98
2023-01-19T05:27:42.446Z,99.10
2023-01-19T05:28:12.974Z,99.13
2023-01-19T05:28:43.920Z,99.02
2023-01-19T05:29:14.866Z,99.13
2023-01-19T05:29:45.870Z,99.44
2023-01-19T05:30:16.506Z,99.61
2023-01-19T05:30:47.080Z,99.66
2023-01-19T05:31:19.492Z,99.82
2023-01-19T05:31:48.469Z,99.93
2023-01-19T05:32:19.177Z,99.88
2023-01-19T05:32:50.160Z,99.95
2023-01-19T05:33:21.016Z,99.99
2023-01-19T05:33:51.559Z,99.82
2023-01-19T05:34:22.095Z,99.87
2023-01-19T05:34:52.542Z,99.63
2023-01-19T05:35:35.333Z,99.87
2023-01-19T05:35:55.663Z,99.99
2023-01-19T05:36:25.221Z,99.93
2023-01-19T05:36:55.751Z,99.93
2023-01-19T05:37:26.259Z,99.87
2023-01-19T05:37:56.805Z,99.80
2023-01-19T05:38:35.330Z,99.93
2023-01-19T05:38:59.337Z,99.58
2023-01-19T05:39:29.018Z,99.78
2023-01-19T05:39:59.565Z,99.98
2023-01-19T05:40:30.032Z,99.82
2023-01-19T05:41:00.954Z,99.76
2023-01-19T05:41:32.097Z,99.91
2023-01-19T05:42:02.633Z,99.78
2023-01-19T05:42:33.173Z,99.98
2023-01-19T05:43:04.216Z,99.93
2023-01-19T05:43:34.454Z,99.82
2023-01-19T05:44:05.425Z,99.87
2023-01-19T05:44:36.557Z,99.87
2023-01-19T05:45:07.010Z,99.99
2023-01-19T05:45:37.456Z,99.98
2023-01-19T05:46:08.415Z,99.99
2023-01-19T05:46:39.437Z,99.99
2023-01-19T05:47:09.976Z,99.99
2023-01-19T05:47:40.974Z,99.99
2023-01-19T05:48:10.963Z,99.99
2023-01-19T05:48:41.932Z,99.99
2023-01-19T05:49:12.913Z,99.99
2023-01-19T05:49:43.862Z,99.99
2023-01-19T05:50:14.414Z,99.99
2023-01-19T05:50:45.082Z,99.99
2023-01-19T05:51:15.582Z,99.99
2023-01-19T05:51:46.559Z,99.99
2023-01-19T05:52:17.523Z,99.99
2023-01-19T05:52:48.553Z,99.99
2023-01-19T05:53:19.140Z,99.99
2023-01-19T05:53:49.749Z,99.99
2023-01-19T05:54:20.283Z,99.99
2023-01-19T05:54:50.747Z,99.99
2023-01-19T05:55:21.719Z,99.93
2023-01-19T05:55:52.666Z,99.99
2023-01-19T05:56:23.676Z,99.99
2023-01-19T05:56:54.424Z,99.99
2023-01-19T05:57:24.933Z,99.99
2023-01-19T05:57:55.915Z,99.99
2023-01-19T05:58:27.106Z,99.99
2023-01-19T05:58:57.588Z,99.99
2023-01-19T05:59:28.566Z,99.99
2023-01-19T05:59:59.271Z,99.98
2023-01-19T06:00:29.788Z,99.67
2023-01-19T06:01:00.748Z,99.91
2023-01-19T06:01:31.279Z,99.72
2023-01-19T06:02:01.772Z,99.85
2023-01-19T06:02:32.760Z,99.76
2023-01-19T06:03:04.037Z,99.66
2023-01-19T06:03:33.966Z,99.46
2023-01-19T06:04:04.696Z,99.70
2023-01-19T06:04:35.616Z,99.51
2023-01-19T06:05:06.579Z,99.60
2023-01-19T06:05:37.536Z,99.66
2023-01-19T06:06:08.668Z,99.72
2023-01-19T06:06:39.234Z,99.85
2023-01-19T06:07:09.760Z,99.85
2023-01-19T06:07:40.292Z,99.99
2023-01-19T06:08:10.826Z,99.99
2023-01-19T06:08:41.385Z,99.99
2023-01-19T06:09:12.006Z,99.99
2023-01-19T06:09:42.729Z,99.98
2023-01-19T06:10:13.269Z,99.99
2023-01-19T06:10:43.727Z,99.87
2023-01-19T06:11:14.779Z,99.66
2023-01-19T06:11:45.255Z,99.76
2023-01-19T06:12:16.396Z,99.76
2023-01-19T06:12:46.937Z,99.80
2023-01-19T06:13:17.454Z,99.80
2023-01-19T06:13:48.129Z,99.75
2023-01-19T06:14:18.817Z,99.49
2023-01-19T06:14:49.822Z,99.60
2023-01-19T06:15:20.484Z,99.55
2023-01-19T06:15:51.014Z,99.34
2023-01-19T06:16:21.498Z,99.25
2023-01-19T06:16:51.984Z,99.34
2023-01-19T06:17:22.956Z,99.44
2023-01-19T06:17:53.917Z,99.49
2023-01-19T06:18:25.058Z,99.55
2023-01-19T06:18:55.626Z,99.75
2023-01-19T06:19:26.093Z,99.88
2023-01-19T06:19:56.643Z,99.87
2023-01-19T06:20:27.104Z,99.80
2023-01-19T06:20:58.169Z,99.87
2023-01-19T06:21:28.804Z,99.80
2023-01-19T06:21:59.315Z,99.76
2023-01-19T06:22:29.783Z,99.66
2023-01-19T06:23:00.901Z,99.99
2023-01-19T06:23:31.438Z,99.96
2023-01-19T06:24:02.367Z,99.96
2023-01-19T06:24:33.581Z,99.91
2023-01-19T06:25:04.092Z,99.91
2023-01-19T06:25:34.572Z,99.96
2023-01-19T06:26:05.570Z,99.91
2023-01-19T06:26:36.103Z,99.93
2023-01-19T06:27:06.867Z,99.99
2023-01-19T06:27:38.027Z,99.99
2023-01-19T06:28:08.554Z,99.99
2023-01-19T06:28:39.057Z,99.98
2023-01-19T06:29:09.596Z,99.99
2023-01-19T06:29:40.304Z,99.70
2023-01-19T06:30:10.805Z,99.60
2023-01-19T06:30:42.013Z,99.38
2023-01-19T06:31:12.628Z,99.61
2023-01-19T06:31:43.154Z,99.55
2023-01-19T06:32:13.605Z,99.48
2023-01-19T06:32:44.567Z,99.28
2023-01-19T06:33:15.551Z,99.34
2023-01-19T06:33:46.332Z,99.37
2023-01-19T06:34:16.848Z,99.49
2023-01-19T06:34:47.298Z,99.49
2023-01-19T06:35:18.249Z,99.28
2023-01-19T06:35:49.221Z,99.24
2023-01-19T06:36:20.265Z,99.18
2023-01-19T06:36:50.942Z,99.07
2023-01-19T06:37:21.371Z,99.07
2023-01-19T06:37:52.266Z,98.87
2023-01-19T06:38:23.167Z,98.80
2023-01-19T06:38:54.090Z,98.61
2023-01-19T06:39:25.028Z,98.75
2023-01-19T06:39:56.159Z,98.43
2023-01-19T06:40:26.662Z,98.54
2023-01-19T06:40:57.600Z,98.28
2023-01-19T06:41:28.689Z,98.22
2023-01-19T06:41:59.199Z,98.36
2023-01-19T06:42:29.670Z,98.22
2023-01-19T06:43:01.307Z,98.13
2023-01-19T06:43:31.169Z,98.49
2023-01-19T06:44:02.142Z,98.58
2023-01-19T06:44:33.130Z,98.65
2023-01-19T06:45:03.531Z,98.22
2023-01-19T06:45:34.504Z,98.24
2023-01-19T06:46:05.651Z,98.33
2023-01-19T06:46:36.177Z,98.49
2023-01-19T06:47:15.580Z,98.54
2023-01-19T06:47:39.057Z,98.49
2023-01-19T06:48:08.418Z,98.48
2023-01-19T06:48:39.513Z,98.18
2023-01-19T06:49:10.293Z,98.13
2023-01-19T06:49:40.807Z,97.81
2023-01-19T06:50:11.758Z,97.75
2023-01-19T06:50:42.770Z,97.80
2023-01-19T06:51:13.676Z,97.29
2023-01-19T06:51:44.858Z,97.42
2023-01-19T06:52:15.296Z,97.25
2023-01-19T06:52:46.177Z,97.47
2023-01-19T06:53:17.177Z,97.45
2023-01-19T06:53:48.381Z,97.33
2023-01-19T06:54:18.794Z,97.31
2023-01-19T06:54:49.921Z,97.08
2023-01-19T06:55:20.372Z,97.06
2023-01-19T06:55:51.310Z,97.02
2023-01-19T06:56:22.094Z,97.06
2023-01-19T06:56:52.926Z,96.85
2023-01-19T06:57:23.869Z,96.66
2023-01-19T06:57:54.603Z,96.55
2023-01-19T06:58:25.335Z,96.39
2023-01-19T06:58:55.755Z,96.23
2023-01-19T06:59:26.685Z,96.23
2023-01-19T06:59:57.718Z,96.17
2023-01-19T07:00:28.185Z,96.03
2023-01-19T07:00:59.451Z,95.87
2023-01-19T07:01:29.883Z,95.71
2023-01-19T07:02:00.784Z,95.64
2023-01-19T07:02:32.553Z,95.75
2023-01-19T07:03:02.755Z,95.60
2023-01-19T07:03:33.126Z,95.86
2023-01-19T07:04:04.285Z,95.60
2023-01-19T07:04:34.778Z,95.71
2023-01-19T07:05:05.698Z,95.50
2023-01-19T07:05:36.641Z,95.45
2023-01-19T07:06:07.567Z,95.26
2023-01-19T07:06:38.451Z,95.29
2023-01-19T07:07:09.637Z,95.43
2023-01-19T07:07:40.246Z,95.39
2023-01-19T07:08:11.141Z,95.24
2023-01-19T07:08:42.133Z,95.24
2023-01-19T07:09:13.890Z,95.06
2023-01-19T07:09:43.586Z,94.99
2023-01-19T07:10:14.729Z,94.84
2023-01-19T07:11:25.419Z,95.07
2023-01-19T07:11:25.850Z,95.01
2023-01-19T07:11:48.080Z,94.82
2023-01-19T07:12:17.584Z,94.65
2023-01-19T07:12:48.966Z,94.34
2023-01-19T07:13:19.225Z,94.38
2023-01-19T07:13:50.059Z,94.29
2023-01-19T07:14:20.944Z,93.98
2023-01-19T07:14:51.828Z,93.83
2023-01-19T07:15:22.465Z,93.83
2023-01-19T07:15:53.126Z,93.47
2023-01-19T07:16:23.728Z,93.62
2023-01-19T07:16:54.253Z,93.37
2023-01-19T07:17:24.671Z,93.28
2023-01-19T07:17:55.709Z,93.24
2023-01-19T07:18:26.232Z,93.24
2023-01-19T07:18:57.388Z,93.19
2023-01-19T07:19:27.881Z,93.18
2023-01-19T07:19:58.807Z,93.26
2023-01-19T07:20:29.807Z,93.05
2023-01-19T07:21:00.260Z,92.99
2023-01-19T07:21:31.349Z,92.92
2023-01-19T07:22:02.173Z,92.86
2023-01-19T07:22:32.841Z,93.03
2023-01-19T07:23:44.283Z,93.18
2023-01-19T07:24:15.332Z,92.94
2023-01-19T07:24:45.847Z,93.07
2023-01-19T07:25:16.778Z,93.13
2023-01-19T07:25:47.766Z,92.99
2023-01-19T07:26:18.904Z,93.11
2023-01-19T07:26:49.391Z,93.28
2023-01-19T07:27:20.366Z,93.09
2023-01-19T07:27:51.355Z,93.07
2023-01-19T07:28:22.344Z,93.15
2023-01-19T07:28:53.301Z,92.84
2023-01-19T07:29:24.411Z,92.92
2023-01-19T07:29:54.883Z,92.99
2023-01-19T07:30:25.903Z,92.92
2023-01-19T07:30:56.657Z,93.07
2023-01-19T07:31:27.374Z,92.92
2023-01-19T07:31:58.092Z,92.82
2023-01-19T07:32:29.270Z,92.76
2023-01-19T07:33:00.281Z,93.07
2023-01-19T07:33:30.546Z,92.80
2023-01-19T07:34:01.449Z,93.03
2023-01-19T07:34:32.448Z,92.77
2023-01-19T07:35:03.425Z,92.35
2023-01-19T07:35:34.559Z,92.29
2023-01-19T07:36:05.059Z,92.25
2023-01-19T07:36:35.544Z,92.21
2023-01-19T07:37:06.459Z,92.50
2023-01-19T07:37:37.401Z,92.25
2023-01-19T07:38:08.371Z,92.25
2023-01-19T07:38:39.495Z,92.06
2023-01-19T07:39:09.990Z,92.18
2023-01-19T07:39:40.909Z,92.46
2023-01-19T07:40:11.847Z,92.14
2023-01-19T07:40:42.786Z,92.18
2023-01-19T07:41:13.801Z,92.10
2023-01-19T07:41:44.881Z,92.40
2023-01-19T07:42:15.363Z,92.46
2023-01-19T07:42:46.300Z,92.16
2023-01-19T07:43:17.188Z,92.29
2023-01-19T07:43:48.112Z,92.35
2023-01-19T07:44:19.091Z,92.27
2023-01-19T07:44:49.824Z,92.57
2023-01-19T07:45:20.296Z,92.57
2023-01-19T07:45:51.328Z,92.54
2023-01-19T07:46:21.889Z,92.25
2023-01-19T07:46:52.361Z,92.41
2023-01-19T07:47:23.304Z,92.21
2023-01-19T07:47:54.377Z,91.99
2023-01-19T07:48:24.905Z,91.93
2023-01-19T07:48:55.321Z,91.89
2023-01-19T07:49:26.336Z,91.96
2023-01-19T07:49:56.828Z,92.14
2023-01-19T07:50:27.765Z,92.29
2023-01-19T07:50:58.929Z,92.08
2023-01-19T07:51:29.387Z,91.97
2023-01-19T07:52:00.301Z,91.93
2023-01-19T07:52:31.219Z,91.87
2023-01-19T07:53:02.575Z,92.10
2023-01-19T07:53:32.997Z,92.08
2023-01-19T07:54:03.732Z,91.83
2023-01-19T07:54:34.242Z,91.85
2023-01-19T07:55:05.224Z,91.89
2023-01-19T07:55:35.689Z,91.70
2023-01-19T07:56:06.679Z,91.72
2023-01-19T07:56:37.620Z,91.28
2023-01-19T07:57:08.804Z,91.41
2023-01-19T07:57:39.268Z,91.28
2023-01-19T07:58:10.250Z,91.17
2023-01-19T07:58:41.250Z,91.11
2023-01-19T07:59:12.256Z,91.05
2023-01-19T07:59:43.170Z,91.00
2023-01-19T08:00:14.339Z,90.90
2023-01-19T08:00:44.840Z,90.80
2023-01-19T08:01:16.021Z,90.94
2023-01-19T08:01:46.667Z,90.69
2023-01-19T08:02:17.456Z,90.90
2023-01-19T08:02:48.079Z,91.36
2023-01-19T08:03:19.177Z,91.24
2023-01-19T08:03:49.639Z,91.26
2023-01-19T08:04:20.672Z,91.15
2023-01-19T08:04:51.178Z,91.00
2023-01-19T08:05:21.682Z,90.78
2023-01-19T08:05:52.666Z,91.09
2023-01-19T08:06:23.984Z,91.15
2023-01-19T08:06:54.457Z,91.05
2023-01-19T08:07:25.456Z,91.17
2023-01-19T08:07:56.340Z,91.41
2023-01-19T08:08:27.302Z,91.34
2023-01-19T08:08:58.287Z,91.22
2023-01-19T08:09:29.440Z,91.11
2023-01-19T08:09:59.925Z,91.07
2023-01-19T08:10:31.021Z,91.26
2023-01-19T08:11:01.525Z,91.32
2023-01-19T08:11:32.053Z,91.42
2023-01-19T08:12:02.563Z,91.42
2023-01-19T08:12:33.188Z,91.26
2023-01-19T08:13:04.023Z,90.97
2023-01-19T08:13:34.542Z,91.00
2023-01-19T08:14:07.837Z,91.00
2023-01-19T08:14:36.144Z,91.07
2023-01-19T08:15:07.159Z,91.11
2023-01-19T08:15:37.880Z,91.15
2023-01-19T08:16:08.447Z,91.26
2023-01-19T08:16:39.023Z,91.26
2023-01-19T08:17:09.499Z,91.13
2023-01-19T08:17:40.398Z,90.86
2023-01-19T08:18:11.343Z,90.69
2023-01-19T08:18:42.759Z,90.82
2023-01-19T08:19:13.245Z,90.75
2023-01-19T08:19:44.131Z,90.80
2023-01-19T08:20:15.101Z,90.65
2023-01-19T08:20:46.025Z,90.90
2023-01-19T08:21:16.951Z,90.94
2023-01-19T08:21:48.108Z,90.75
2023-01-19T08:22:18.598Z,90.71
2023-01-19T08:22:49.528Z,90.80
2023-01-19T08:23:20.490Z,90.90
2023-01-19T08:23:51.474Z,90.86
2023-01-19T08:24:22.512Z,90.69
2023-01-19T08:24:53.231Z,91.19
2023-01-19T08:25:23.707Z,90.83
2023-01-19T08:25:54.657Z,90.80
2023-01-19T08:26:25.651Z,90.69
2023-01-19T08:26:56.144Z,90.44
2023-01-19T08:27:27.135Z,90.44
2023-01-19T08:27:58.230Z,90.12
2023-01-19T08:28:28.754Z,90.16
2023-01-19T08:28:59.203Z,90.26
2023-01-19T08:29:30.102Z,90.37
2023-01-19T08:30:01.039Z,90.12
2023-01-19T08:30:32.070Z,89.91
2023-01-19T08:31:18.317Z,89.91
2023-01-19T08:31:34.276Z,90.04
2023-01-19T08:32:04.017Z,89.89
2023-01-19T08:32:34.596Z,89.84
2023-01-19T08:33:05.589Z,89.66
2023-01-19T08:33:36.649Z,89.98
2023-01-19T08:34:07.165Z,89.87
2023-01-19T08:34:38.079Z,89.62
2023-01-19T08:35:09.010Z,89.24
2023-01-19T08:35:39.974Z,89.59
2023-01-19T08:36:10.904Z,89.62
2023-01-19T08:36:42.119Z,89.76
2023-01-19T08:37:12.623Z,89.66
2023-01-19T08:37:43.106Z,89.76
2023-01-19T08:38:14.076Z,89.66
2023-01-19T08:38:45.077Z,89.76
2023-01-19T08:39:16.049Z,89.66
2023-01-19T08:39:47.152Z,89.66
2023-01-19T08:40:17.641Z,89.56
2023-01-19T08:40:48.545Z,89.30
2023-01-19T08:41:19.483Z,89.28
2023-01-19T08:41:50.407Z,89.30
2023-01-19T08:42:21.407Z,89.24
2023-01-19T08:42:52.605Z,89.24
2023-01-19T08:43:23.041Z,88.89
2023-01-19T08:43:54.020Z,88.53
2023-01-19T08:44:24.906Z,88.54
2023-01-19T08:44:58.316Z,88.40
2023-01-19T08:45:26.409Z,88.33
2023-01-19T08:45:57.794Z,88.46
2023-01-19T08:46:28.349Z,88.29
2023-01-19T08:46:58.898Z,88.25
2023-01-19T08:47:29.455Z,88.89
2023-01-19T08:47:59.961Z,88.50
2023-01-19T08:48:30.845Z,88.15
2023-01-19T08:49:02.136Z,88.53
2023-01-19T08:49:32.788Z,88.99
2023-01-19T08:50:03.294Z,88.53
2023-01-19T08:51:15.420Z,88.71
2023-01-19T08:51:45.983Z,88.67
2023-01-19T08:52:16.618Z,88.89
2023-01-19T08:52:47.176Z,89.26
2023-01-19T08:53:17.812Z,89.32
2023-01-19T08:53:48.484Z,88.99
2023-01-19T08:54:19.005Z,88.90
2023-01-19T08:54:49.642Z,88.60
2023-01-19T08:55:20.097Z,88.67
2023-01-19T08:55:51.185Z,88.67
2023-01-19T08:56:21.825Z,89.34
2023-01-19T08:56:52.493Z,89.30
2023-01-19T08:57:22.994Z,89.05
2023-01-19T08:57:53.616Z,88.97
2023-01-19T08:58:24.214Z,88.67
2023-01-19T08:59:08.083Z,88.58
2023-01-19T08:59:25.737Z,88.71
2023-01-19T08:59:56.224Z,88.46
2023-01-19T09:00:27.195Z,89.09
2023-01-19T09:00:58.174Z,89.41
2023-01-19T09:01:28.666Z,88.99
2023-01-19T09:01:59.754Z,89.24
2023-01-19T09:02:30.628Z,89.17
2023-01-19T09:03:01.469Z,88.95
2023-01-19T09:03:31.652Z,89.34
2023-01-19T09:04:02.611Z,89.43
2023-01-19T09:04:33.594Z,89.17
2023-01-19T09:05:04.071Z,89.17
2023-01-19T09:05:35.253Z,89.64
2023-01-19T09:06:05.746Z,89.50
2023-01-19T09:06:36.265Z,89.81
2023-01-19T09:07:07.249Z,89.79
2023-01-19T09:07:37.703Z,90.25
2023-01-19T09:08:08.624Z,90.04
2023-01-19T09:08:39.827Z,89.47
2023-01-19T09:09:10.220Z,89.16
2023-01-19T09:09:41.224Z,88.53
2023-01-19T09:10:12.168Z,88.21
2023-01-19T09:10:43.153Z,87.90
2023-01-19T09:11:14.119Z,87.75
2023-01-19T09:11:45.304Z,87.44
2023-01-19T09:12:15.773Z,87.90
2023-01-19T09:12:46.733Z,88.25
2023-01-19T09:13:17.247Z,87.79
2023-01-19T09:13:48.225Z,87.54
2023-01-19T09:14:19.136Z,87.12
2023-01-19T09:14:50.296Z,87.48
2023-01-19T09:15:20.879Z,87.54
2023-01-19T09:15:51.846Z,87.45
2023-01-19T09:16:22.813Z,87.44
2023-01-19T13:55:53.477Z,73.61
2023-01-19T13:56:24.460Z,73.82
2023-01-19T13:56:55.441Z,74.66
2023-01-19T13:57:26.568Z,74.59
2023-01-19T13:57:57.234Z,74.45
2023-01-19T13:58:27.918Z,74.59
2023-01-19T13:58:58.599Z,75.70
2023-01-19T13:59:29.251Z,74.90
2023-01-19T13:59:59.788Z,74.59
2023-01-19T14:00:31.067Z,74.04
2023-01-19T14:01:02.246Z,73.99
2023-01-19T14:01:32.327Z,74.49
2023-01-19T14:02:03.313Z,75.04
2023-01-19T14:02:34.227Z,75.22
2023-01-19T14:03:05.091Z,74.69
2023-01-19T14:03:35.977Z,74.31
2023-01-19T14:04:06.493Z,74.35
2023-01-19T14:04:37.247Z,73.72
2023-01-19T14:05:08.378Z,74.24
2023-01-19T14:06:20.881Z,75.15
2023-01-19T14:06:50.387Z,74.31
2023-01-19T14:07:21.331Z,74.10
2023-01-19T14:07:52.351Z,74.87
2023-01-19T14:08:22.894Z,75.92
2023-01-19T14:08:53.392Z,75.32
2023-01-19T14:09:24.346Z,74.80
2023-01-19T14:09:55.305Z,74.31
2023-01-19T14:10:26.449Z,74.35
2023-01-19T14:10:57.289Z,74.94